sensor_id;sensor_type;location;lat;lon;timestamp;P1;durP1;ratioP1;P2;durP2;ratioP2
19808;SDS011;48538;32.784;-96.802;2023-05-10T00:02:00;10.32;;;7.38;;
19808;SDS011;48538;32.784;-96.802;2023-05-10T00:04:26;13.57;;;7.88;;
19808;SDS011;48538;32.784;-96.802;2023-05-10T00:06:53;11.85;;;8.38;;
19808;SDS011;48538;32.784;-96.802;2023-05-10T00:09:19;15.43;;;9.05;;
19808;SDS011;48538;32.784;-96.802;2023-05-10T00:11:46;15.20;;;9.02;;
19808;SDS011;48538;32.784;-96.802;2023-05-10T00:14:12;16.55;;;10.02;;
19808;SDS011;48538;32.784;-96.802;2023-05-10T00:16:38;14.93;;;7.95;;
19808;SDS011;48538;32.784;-96.802;2023-05-10T00:19:04;11.45;;;7.90;;
19808;SDS011;48538;32.784;-96.802;2023-05-10T00:21:31;39.35;;;15.05;;
19808;SDS011;48538;32.784;-96.802;2023-05-10T00:23:59;15.55;;;8.27;;
19808;SDS011;48538;32.784;-96.802;2023-05-10T00:26:25;12.43;;;8.48;;
19808;SDS011;48538;32.784;-96.802;2023-05-10T00:28:51;16.02;;;9.10;;
19808;SDS011;48538;32.784;-96.802;2023-05-10T00:31:18;12.13;;;7.30;;
19808;SDS011;48538;32.784;-96.802;2023-05-10T00:33:44;10.88;;;7.15;;
19808;SDS011;48538;32.784;-96.802;2023-05-10T00:36:10;15.25;;;8.70;;
19808;SDS011;48538;32.784;-96.802;2023-05-10T00:38:37;17.85;;;9.23;;
19808;SDS011;48538;32.784;-96.802;2023-05-10T00:41:03;13.13;;;8.75;;
19808;SDS011;48538;32.784;-96.802;2023-05-10T00:43:29;13.40;;;9.10;;
19808;SDS011;48538;32.784;-96.802;2023-05-10T00:45:56;15.10;;;8.57;;
19808;SDS011;48538;32.784;-96.802;2023-05-10T00:48:22;12.52;;;8.10;;
19808;SDS011;48538;32.784;-96.802;2023-05-10T00:50:49;15.55;;;8.90;;
19808;SDS011;48538;32.784;-96.802;2023-05-10T00:53:15;17.20;;;8.80;;
19808;SDS011;48538;32.784;-96.802;2023-05-10T00:55:42;13.40;;;8.63;;
19808;SDS011;48538;32.784;-96.802;2023-05-10T00:58:08;15.50;;;8.52;;
19808;SDS011;48538;32.784;-96.802;2023-05-10T01:00:35;14.80;;;8.82;;
19808;SDS011;48538;32.784;-96.802;2023-05-10T01:03:02;12.50;;;8.98;;
19808;SDS011;48538;32.784;-96.802;2023-05-10T01:05:28;14.35;;;8.90;;
19808;SDS011;48538;32.784;-96.802;2023-05-10T01:07:55;15.38;;;9.30;;
19808;SDS011;48538;32.784;-96.802;2023-05-10T01:10:22;15.15;;;8.90;;
19808;SDS011;48538;32.784;-96.802;2023-05-10T01:12:48;15.27;;;9.23;;
19808;SDS011;48538;32.784;-96.802;2023-05-10T01:15:15;14.98;;;9.02;;
19808;SDS011;48538;32.784;-96.802;2023-05-10T01:17:43;13.30;;;8.70;;
19808;SDS011;48538;32.784;-96.802;2023-05-10T01:20:11;14.20;;;9.05;;
19808;SDS011;48538;32.784;-96.802;2023-05-10T01:34:18;17.70;;;10.18;;
19808;SDS011;48538;32.784;-96.802;2023-05-10T01:36:55;13.15;;;9.10;;
19808;SDS011;48538;32.784;-96.802;2023-05-10T01:39:55;15.75;;;9.55;;
19808;SDS011;48538;32.784;-96.802;2023-05-10T01:42:53;16.88;;;9.15;;
19808;SDS011;48538;32.784;-96.802;2023-05-10T01:46:31;16.77;;;9.80;;
19808;SDS011;48538;32.784;-96.802;2023-05-10T01:48:54;18.83;;;9.93;;
19808;SDS011;48538;32.784;-96.802;2023-05-10T01:51:23;13.40;;;9.57;;
19808;SDS011;48538;32.784;-96.802;2023-05-10T01:53:54;18.08;;;9.32;;
19808;SDS011;48538;32.784;-96.802;2023-05-10T01:56:28;13.93;;;9.27;;
19808;SDS011;48538;32.784;-96.802;2023-05-10T01:58:57;23.95;;;9.95;;
19808;SDS011;48538;32.784;-96.802;2023-05-10T02:01:26;17.25;;;9.07;;
19808;SDS011;48538;32.784;-96.802;2023-05-10T02:03:53;15.13;;;9.23;;
19808;SDS011;48538;32.784;-96.802;2023-05-10T02:06:22;17.13;;;10.20;;
19808;SDS011;48538;32.784;-96.802;2023-05-10T02:08:50;16.05;;;10.32;;
19808;SDS011;48538;32.784;-96.802;2023-05-10T02:11:18;17.98;;;10.00;;
19808;SDS011;48538;32.784;-96.802;2023-05-10T02:13:47;15.35;;;9.13;;
19808;SDS011;48538;32.784;-96.802;2023-05-10T02:16:16;15.63;;;9.52;;
19808;SDS011;48538;32.784;-96.802;2023-05-10T02:18:44;14.75;;;10.43;;
19808;SDS011;48538;32.784;-96.802;2023-05-10T02:21:12;17.88;;;9.80;;
19808;SDS011;48538;32.784;-96.802;2023-05-10T02:23:40;20.17;;;10.52;;
19808;SDS011;48538;32.784;-96.802;2023-05-10T02:26:09;12.30;;;9.30;;
19808;SDS011;48538;32.784;-96.802;2023-05-10T02:28:37;15.13;;;10.10;;
19808;SDS011;48538;32.784;-96.802;2023-05-10T02:31:05;16.20;;;10.63;;
19808;SDS011;48538;32.784;-96.802;2023-05-10T02:33:32;14.30;;;9.90;;
19808;SDS011;48538;32.784;-96.802;2023-05-10T02:36:01;18.85;;;11.02;;
19808;SDS011;48538;32.784;-96.802;2023-05-10T02:38:29;15.73;;;9.80;;
19808;SDS011;48538;32.784;-96.802;2023-05-10T02:40:57;19.38;;;10.18;;
19808;SDS011;48538;32.784;-96.802;2023-05-10T02:43:24;15.77;;;10.52;;
19808;SDS011;48538;32.784;-96.802;2023-05-10T02:45:53;13.60;;;10.18;;
19808;SDS011;48538;32.784;-96.802;2023-05-10T02:48:19;17.38;;;11.82;;
19808;SDS011;48538;32.784;-96.802;2023-05-10T02:50:45;15.23;;;10.38;;
19808;SDS011;48538;32.784;-96.802;2023-05-10T02:53:18;18.70;;;10.23;;
19808;SDS011;48538;32.784;-96.802;2023-05-10T02:55:56;14.07;;;9.35;;
19808;SDS011;48538;32.784;-96.802;2023-05-10T02:58:26;16.70;;;10.50;;
19808;SDS011;48538;32.784;-96.802;2023-05-10T03:00:52;14.68;;;11.25;;
19808;SDS011;48538;32.784;-96.802;2023-05-10T03:03:19;15.13;;;9.85;;
19808;SDS011;48538;32.784;-96.802;2023-05-10T03:05:46;16.42;;;9.68;;
19808;SDS011;48538;32.784;-96.802;2023-05-10T03:08:12;16.63;;;10.07;;
19808;SDS011;48538;32.784;-96.802;2023-05-10T03:10:41;17.15;;;10.45;;
19808;SDS011;48538;32.784;-96.802;2023-05-10T03:13:32;15.35;;;8.93;;
19808;SDS011;48538;32.784;-96.802;2023-05-10T03:16:22;16.23;;;9.07;;
19808;SDS011;48538;32.784;-96.802;2023-05-10T03:18:59;11.13;;;8.57;;
19808;SDS011;48538;32.784;-96.802;2023-05-10T03:21:32;15.98;;;9.10;;
19808;SDS011;48538;32.784;-96.802;2023-05-10T03:24:08;13.40;;;9.65;;
19808;SDS011;48538;32.784;-96.802;2023-05-10T03:26:37;13.32;;;9.05;;
19808;SDS011;48538;32.784;-96.802;2023-05-10T03:29:04;16.95;;;9.45;;
19808;SDS011;48538;32.784;-96.802;2023-05-10T03:31:33;12.27;;;9.30;;
19808;SDS011;48538;32.784;-96.802;2023-05-10T03:34:00;16.77;;;10.15;;
19808;SDS011;48538;32.784;-96.802;2023-05-10T03:36:26;14.57;;;9.57;;
19808;SDS011;48538;32.784;-96.802;2023-05-10T03:38:52;13.25;;;8.85;;
19808;SDS011;48538;32.784;-96.802;2023-05-10T03:41:19;12.85;;;8.50;;
19808;SDS011;48538;32.784;-96.802;2023-05-10T03:43:45;15.30;;;9.10;;
19808;SDS011;48538;32.784;-96.802;2023-05-10T03:46:12;13.10;;;8.30;;
19808;SDS011;48538;32.784;-96.802;2023-05-10T03:48:38;13.68;;;7.80;;
19808;SDS011;48538;32.784;-96.802;2023-05-10T03:51:04;11.13;;;8.32;;
19808;SDS011;48538;32.784;-96.802;2023-05-10T03:53:31;9.32;;;7.45;;
19808;SDS011;48538;32.784;-96.802;2023-05-10T03:55:57;9.82;;;7.55;;
19808;SDS011;48538;32.784;-96.802;2023-05-10T03:58:23;10.60;;;7.63;;
19808;SDS011;48538;32.784;-96.802;2023-05-10T04:00:50;12.35;;;7.65;;
19808;SDS011;48538;32.784;-96.802;2023-05-10T04:03:17;10.43;;;7.72;;
19808;SDS011;48538;32.784;-96.802;2023-05-10T04:05:43;11.90;;;7.32;;
19808;SDS011;48538;32.784;-96.802;2023-05-10T04:08:10;12.90;;;7.35;;
19808;SDS011;48538;32.784;-96.802;2023-05-10T04:10:36;14.93;;;8.30;;
19808;SDS011;48538;32.784;-96.802;2023-05-10T04:13:02;13.95;;;7.72;;
19808;SDS011;48538;32.784;-96.802;2023-05-10T04:15:28;14.10;;;7.65;;
19808;SDS011;48538;32.784;-96.802;2023-05-10T04:17:55;14.40;;;7.43;;
19808;SDS011;48538;32.784;-96.802;2023-05-10T04:20:21;10.07;;;6.32;;
19808;SDS011;48538;32.784;-96.802;2023-05-10T04:22:47;10.73;;;7.05;;
19808;SDS011;48538;32.784;-96.802;2023-05-10T04:25:13;16.90;;;7.10;;
19808;SDS011;48538;32.784;-96.802;2023-05-10T04:27:40;9.05;;;6.70;;
19808;SDS011;48538;32.784;-96.802;2023-05-10T04:30:06;9.38;;;6.57;;
19808;SDS011;48538;32.784;-96.802;2023-05-10T04:32:33;12.63;;;7.07;;
19808;SDS011;48538;32.784;-96.802;2023-05-10T04:34:59;9.63;;;6.40;;
19808;SDS011;48538;32.784;-96.802;2023-05-10T04:37:28;8.13;;;6.15;;
19808;SDS011;48538;32.784;-96.802;2023-05-10T04:39:54;11.32;;;6.30;;
19808;SDS011;48538;32.784;-96.802;2023-05-10T04:42:21;11.82;;;6.97;;
19808;SDS011;48538;32.784;-96.802;2023-05-10T04:44:47;11.50;;;7.18;;
19808;SDS011;48538;32.784;-96.802;2023-05-10T04:47:13;12.25;;;7.75;;
19808;SDS011;48538;32.784;-96.802;2023-05-10T04:49:41;13.80;;;7.10;;
19808;SDS011;48538;32.784;-96.802;2023-05-10T04:52:07;8.95;;;6.70;;
19808;SDS011;48538;32.784;-96.802;2023-05-10T04:54:33;9.52;;;6.68;;
19808;SDS011;48538;32.784;-96.802;2023-05-10T04:57:00;6.57;;;5.88;;
19808;SDS011;48538;32.784;-96.802;2023-05-10T04:59:26;9.50;;;6.45;;
19808;SDS011;48538;32.784;-96.802;2023-05-10T05:01:52;12.05;;;6.20;;
19808;SDS011;48538;32.784;-96.802;2023-05-10T05:04:18;13.43;;;7.03;;
19808;SDS011;48538;32.784;-96.802;2023-05-10T05:06:45;11.18;;;6.95;;
19808;SDS011;48538;32.784;-96.802;2023-05-10T05:09:11;11.05;;;6.60;;
19808;SDS011;48538;32.784;-96.802;2023-05-10T05:11:37;8.68;;;6.32;;
19808;SDS011;48538;32.784;-96.802;2023-05-10T05:14:05;12.10;;;6.65;;
19808;SDS011;48538;32.784;-96.802;2023-05-10T05:16:31;10.75;;;6.22;;
19808;SDS011;48538;32.784;-96.802;2023-05-10T05:18:57;8.10;;;5.75;;
19808;SDS011;48538;32.784;-96.802;2023-05-10T05:21:24;9.85;;;6.75;;
19808;SDS011;48538;32.784;-96.802;2023-05-10T05:23:52;9.32;;;5.78;;
19808;SDS011;48538;32.784;-96.802;2023-05-10T05:26:18;10.00;;;6.18;;
19808;SDS011;48538;32.784;-96.802;2023-05-10T05:28:44;9.20;;;6.43;;
19808;SDS011;48538;32.784;-96.802;2023-05-10T05:31:11;9.30;;;5.93;;
19808;SDS011;48538;32.784;-96.802;2023-05-10T05:33:37;11.48;;;6.75;;
19808;SDS011;48538;32.784;-96.802;2023-05-10T05:36:04;10.82;;;6.40;;
19808;SDS011;48538;32.784;-96.802;2023-05-10T05:38:31;8.93;;;5.47;;
19808;SDS011;48538;32.784;-96.802;2023-05-10T05:40:57;10.52;;;6.10;;
19808;SDS011;48538;32.784;-96.802;2023-05-10T05:43:24;10.07;;;5.97;;
19808;SDS011;48538;32.784;-96.802;2023-05-10T05:45:51;8.35;;;5.82;;
19808;SDS011;48538;32.784;-96.802;2023-05-10T05:48:19;9.82;;;5.78;;
19808;SDS011;48538;32.784;-96.802;2023-05-10T05:50:45;9.63;;;5.80;;
19808;SDS011;48538;32.784;-96.802;2023-05-10T05:53:11;9.32;;;6.30;;
19808;SDS011;48538;32.784;-96.802;2023-05-10T05:55:38;8.77;;;6.13;;
19808;SDS011;48538;32.784;-96.802;2023-05-10T05:58:04;9.95;;;5.53;;
19808;SDS011;48538;32.784;-96.802;2023-05-10T06:00:30;8.85;;;6.30;;
19808;SDS011;48538;32.784;-96.802;2023-05-10T06:02:56;8.50;;;5.60;;
19808;SDS011;48538;32.784;-96.802;2023-05-10T06:05:23;8.60;;;5.97;;
19808;SDS011;48538;32.784;-96.802;2023-05-10T06:07:49;10.48;;;6.30;;
19808;SDS011;48538;32.784;-96.802;2023-05-10T06:10:15;9.60;;;6.25;;
19808;SDS011;48538;32.784;-96.802;2023-05-10T06:12:42;8.52;;;6.53;;
19808;SDS011;48538;32.784;-96.802;2023-05-10T06:15:08;12.43;;;6.53;;
19808;SDS011;48538;32.784;-96.802;2023-05-10T06:17:35;9.52;;;6.75;;
19808;SDS011;48538;32.784;-96.802;2023-05-10T06:20:01;7.68;;;5.60;;
19808;SDS011;48538;32.784;-96.802;2023-05-10T06:22:28;8.07;;;6.03;;
19808;SDS011;48538;32.784;-96.802;2023-05-10T06:24:54;9.45;;;5.88;;
19808;SDS011;48538;32.784;-96.802;2023-05-10T06:27:21;10.63;;;6.00;;
19808;SDS011;48538;32.784;-96.802;2023-05-10T06:29:47;10.43;;;5.40;;
19808;SDS011;48538;32.784;-96.802;2023-05-10T06:32:13;5.72;;;5.10;;
19808;SDS011;48538;32.784;-96.802;2023-05-10T06:34:39;9.00;;;5.95;;
19808;SDS011;48538;32.784;-96.802;2023-05-10T06:37:06;10.73;;;5.63;;
19808;SDS011;48538;32.784;-96.802;2023-05-10T06:39:32;10.48;;;5.90;;
19808;SDS011;48538;32.784;-96.802;2023-05-10T06:41:58;9.63;;;5.75;;
19808;SDS011;48538;32.784;-96.802;2023-05-10T06:44:25;7.57;;;5.32;;
19808;SDS011;48538;32.784;-96.802;2023-05-10T06:46:51;8.55;;;6.13;;
19808;SDS011;48538;32.784;-96.802;2023-05-10T06:49:18;9.43;;;5.50;;
19808;SDS011;48538;32.784;-96.802;2023-05-10T06:51:45;11.30;;;6.43;;
19808;SDS011;48538;32.784;-96.802;2023-05-10T06:54:11;8.63;;;5.55;;
19808;SDS011;48538;32.784;-96.802;2023-05-10T06:56:37;8.75;;;6.05;;
19808;SDS011;48538;32.784;-96.802;2023-05-10T06:59:03;11.13;;;6.22;;
19808;SDS011;48538;32.784;-96.802;2023-05-10T07:01:30;10.60;;;6.45;;
19808;SDS011;48538;32.784;-96.802;2023-05-10T07:03:56;10.30;;;6.10;;
19808;SDS011;48538;32.784;-96.802;2023-05-10T07:06:22;7.97;;;5.38;;
19808;SDS011;48538;32.784;-96.802;2023-05-10T07:08:48;9.10;;;5.65;;
19808;SDS011;48538;32.784;-96.802;2023-05-10T07:11:15;9.30;;;5.75;;
19808;SDS011;48538;32.784;-96.802;2023-05-10T07:13:42;11.57;;;6.53;;
19808;SDS011;48538;32.784;-96.802;2023-05-10T07:16:09;6.95;;;5.15;;
19808;SDS011;48538;32.784;-96.802;2023-05-10T07:18:36;9.55;;;5.13;;
19808;SDS011;48538;32.784;-96.802;2023-05-10T07:21:02;6.93;;;5.10;;
19808;SDS011;48538;32.784;-96.802;2023-05-10T07:23:29;8.20;;;4.82;;
19808;SDS011;48538;32.784;-96.802;2023-05-10T07:25:55;6.43;;;4.43;;
19808;SDS011;48538;32.784;-96.802;2023-05-10T07:28:22;7.38;;;4.70;;
19808;SDS011;48538;32.784;-96.802;2023-05-10T07:30:51;9.57;;;5.45;;
19808;SDS011;48538;32.784;-96.802;2023-05-10T07:33:18;7.50;;;5.18;;
19808;SDS011;48538;32.784;-96.802;2023-05-10T07:35:44;9.23;;;4.82;;
19808;SDS011;48538;32.784;-96.802;2023-05-10T07:38:11;9.30;;;4.80;;
19808;SDS011;48538;32.784;-96.802;2023-05-10T07:40:38;7.82;;;4.53;;
19808;SDS011;48538;32.784;-96.802;2023-05-10T07:43:04;7.63;;;4.18;;
19808;SDS011;48538;32.784;-96.802;2023-05-10T07:45:31;7.82;;;4.85;;
19808;SDS011;48538;32.784;-96.802;2023-05-10T07:47:57;8.30;;;4.57;;
19808;SDS011;48538;32.784;-96.802;2023-05-10T07:50:23;6.53;;;4.20;;
19808;SDS011;48538;32.784;-96.802;2023-05-10T07:52:50;6.40;;;4.72;;
19808;SDS011;48538;32.784;-96.802;2023-05-10T07:55:17;7.57;;;4.65;;
19808;SDS011;48538;32.784;-96.802;2023-05-10T07:57:46;5.88;;;4.25;;
19808;SDS011;48538;32.784;-96.802;2023-05-10T08:00:12;7.65;;;4.57;;
19808;SDS011;48538;32.784;-96.802;2023-05-10T08:02:42;8.15;;;5.40;;
19808;SDS011;48538;32.784;-96.802;2023-05-10T08:05:08;8.60;;;4.13;;
19808;SDS011;48538;32.784;-96.802;2023-05-10T08:07:35;7.97;;;5.03;;
19808;SDS011;48538;32.784;-96.802;2023-05-10T08:10:01;5.07;;;3.83;;
19808;SDS011;48538;32.784;-96.802;2023-05-10T08:12:28;6.57;;;4.75;;
19808;SDS011;48538;32.784;-96.802;2023-05-10T08:14:55;6.82;;;4.10;;
19808;SDS011;48538;32.784;-96.802;2023-05-10T08:17:22;5.03;;;3.65;;
19808;SDS011;48538;32.784;-96.802;2023-05-10T08:19:48;8.07;;;4.30;;
19808;SDS011;48538;32.784;-96.802;2023-05-10T08:22:14;4.55;;;3.53;;
19808;SDS011;48538;32.784;-96.802;2023-05-10T08:24:41;8.25;;;4.38;;
19808;SDS011;48538;32.784;-96.802;2023-05-10T08:27:08;5.55;;;4.00;;
19808;SDS011;48538;32.784;-96.802;2023-05-10T08:29:34;5.78;;;3.95;;
19808;SDS011;48538;32.784;-96.802;2023-05-10T08:32:01;7.22;;;4.15;;
19808;SDS011;48538;32.784;-96.802;2023-05-10T08:34:27;9.43;;;4.25;;
19808;SDS011;48538;32.784;-96.802;2023-05-10T08:36:53;7.22;;;4.72;;
19808;SDS011;48538;32.784;-96.802;2023-05-10T08:39:20;8.82;;;4.97;;
19808;SDS011;48538;32.784;-96.802;2023-05-10T08:41:46;9.30;;;4.85;;
19808;SDS011;48538;32.784;-96.802;2023-05-10T08:44:13;5.75;;;4.65;;
19808;SDS011;48538;32.784;-96.802;2023-05-10T08:46:41;7.70;;;4.78;;
19808;SDS011;48538;32.784;-96.802;2023-05-10T08:49:12;7.10;;;5.15;;
19808;SDS011;48538;32.784;-96.802;2023-05-10T08:51:43;6.05;;;4.30;;
19808;SDS011;48538;32.784;-96.802;2023-05-10T08:54:21;7.32;;;4.90;;
19808;SDS011;48538;32.784;-96.802;2023-05-10T08:56:47;7.15;;;4.57;;
19808;SDS011;48538;32.784;-96.802;2023-05-10T08:59:14;7.57;;;4.65;;
19808;SDS011;48538;32.784;-96.802;2023-05-10T09:01:41;8.88;;;4.95;;
19808;SDS011;48538;32.784;-96.802;2023-05-10T09:04:10;6.00;;;4.68;;
19808;SDS011;48538;32.784;-96.802;2023-05-10T09:06:37;7.22;;;5.13;;
19808;SDS011;48538;32.784;-96.802;2023-05-10T09:09:04;8.25;;;5.10;;
19808;SDS011;48538;32.784;-96.802;2023-05-10T09:11:30;6.53;;;4.47;;
19808;SDS011;48538;32.784;-96.802;2023-05-10T09:13:56;8.25;;;5.15;;
19808;SDS011;48538;32.784;-96.802;2023-05-10T09:16:23;6.70;;;4.95;;
19808;SDS011;48538;32.784;-96.802;2023-05-10T09:18:49;6.43;;;4.63;;
19808;SDS011;48538;32.784;-96.802;2023-05-10T09:21:16;7.93;;;4.97;;
19808;SDS011;48538;32.784;-96.802;2023-05-10T09:23:43;6.90;;;4.65;;
19808;SDS011;48538;32.784;-96.802;2023-05-10T09:26:12;7.60;;;5.03;;
19808;SDS011;48538;32.784;-96.802;2023-05-10T09:28:52;9.23;;;5.43;;
19808;SDS011;48538;32.784;-96.802;2023-05-10T09:31:19;8.70;;;4.75;;
19808;SDS011;48538;32.784;-96.802;2023-05-10T09:33:46;5.97;;;5.03;;
19808;SDS011;48538;32.784;-96.802;2023-05-10T09:36:14;10.60;;;4.95;;
19808;SDS011;48538;32.784;-96.802;2023-05-10T09:41:21;5.70;;;4.30;;
19808;SDS011;48538;32.784;-96.802;2023-05-10T09:43:48;7.50;;;4.93;;
19808;SDS011;48538;32.784;-96.802;2023-05-10T09:46:15;7.60;;;5.25;;
19808;SDS011;48538;32.784;-96.802;2023-05-10T09:48:42;6.70;;;5.50;;
19808;SDS011;48538;32.784;-96.802;2023-05-10T09:51:10;9.25;;;5.05;;
19808;SDS011;48538;32.784;-96.802;2023-05-10T09:53:43;5.50;;;4.93;;
19808;SDS011;48538;32.784;-96.802;2023-05-10T09:56:10;6.90;;;5.20;;
19808;SDS011;48538;32.784;-96.802;2023-05-10T09:58:37;6.93;;;5.13;;
19808;SDS011;48538;32.784;-96.802;2023-05-10T10:01:05;9.23;;;5.43;;
19808;SDS011;48538;32.784;-96.802;2023-05-10T10:03:41;10.55;;;5.53;;
19808;SDS011;48538;32.784;-96.802;2023-05-10T10:06:08;6.70;;;4.80;;
19808;SDS011;48538;32.784;-96.802;2023-05-10T10:08:35;8.82;;;5.05;;
19808;SDS011;48538;32.784;-96.802;2023-05-10T10:11:02;9.38;;;5.40;;
19808;SDS011;48538;32.784;-96.802;2023-05-10T10:13:28;7.10;;;5.68;;
19808;SDS011;48538;32.784;-96.802;2023-05-10T10:15:55;7.53;;;5.63;;
19808;SDS011;48538;32.784;-96.802;2023-05-10T10:18:22;7.50;;;4.82;;
19808;SDS011;48538;32.784;-96.802;2023-05-10T10:20:52;10.55;;;4.90;;
19808;SDS011;48538;32.784;-96.802;2023-05-10T10:23:20;8.10;;;5.28;;
19808;SDS011;48538;32.784;-96.802;2023-05-10T10:25:46;7.60;;;5.55;;
19808;SDS011;48538;32.784;-96.802;2023-05-10T10:28:25;6.00;;;4.72;;
19808;SDS011;48538;32.784;-96.802;2023-05-10T10:31:11;6.90;;;5.25;;
19808;SDS011;48538;32.784;-96.802;2023-05-10T10:36:45;8.00;;;5.22;;
19808;SDS011;48538;32.784;-96.802;2023-05-10T10:39:12;8.52;;;5.47;;
19808;SDS011;48538;32.784;-96.802;2023-05-10T10:41:40;6.82;;;5.28;;
19808;SDS011;48538;32.784;-96.802;2023-05-10T10:49:31;9.85;;;6.10;;
19808;SDS011;48538;32.784;-96.802;2023-05-10T10:57:33;6.65;;;5.57;;
19808;SDS011;48538;32.784;-96.802;2023-05-10T11:03:04;7.30;;;5.32;;
19808;SDS011;48538;32.784;-96.802;2023-05-10T11:05:46;6.45;;;4.82;;
19808;SDS011;48538;32.784;-96.802;2023-05-10T11:08:15;8.45;;;5.90;;
19808;SDS011;48538;32.784;-96.802;2023-05-10T11:13:29;8.43;;;5.22;;
19808;SDS011;48538;32.784;-96.802;2023-05-10T11:21:29;8.30;;;6.15;;
19808;SDS011;48538;32.784;-96.802;2023-05-10T11:23:56;10.68;;;6.10;;
19808;SDS011;48538;32.784;-96.802;2023-05-10T11:26:24;8.07;;;5.53;;
19808;SDS011;48538;32.784;-96.802;2023-05-10T11:28:59;10.13;;;5.75;;
19808;SDS011;48538;32.784;-96.802;2023-05-10T11:31:27;10.68;;;6.18;;
19808;SDS011;48538;32.784;-96.802;2023-05-10T11:33:54;8.95;;;5.28;;
19808;SDS011;48538;32.784;-96.802;2023-05-10T11:36:34;12.00;;;6.65;;
19808;SDS011;48538;32.784;-96.802;2023-05-10T11:39:01;10.70;;;6.15;;
19808;SDS011;48538;32.784;-96.802;2023-05-10T11:41:29;7.65;;;5.28;;
19808;SDS011;48538;32.784;-96.802;2023-05-10T11:43:56;9.77;;;6.22;;
19808;SDS011;48538;32.784;-96.802;2023-05-10T11:46:24;7.53;;;5.68;;
19808;SDS011;48538;32.784;-96.802;2023-05-10T11:48:59;9.82;;;5.55;;
19808;SDS011;48538;32.784;-96.802;2023-05-10T11:51:27;8.68;;;5.68;;
19808;SDS011;48538;32.784;-96.802;2023-05-10T11:53:54;8.73;;;5.20;;
19808;SDS011;48538;32.784;-96.802;2023-05-10T11:56:21;10.70;;;6.07;;
19808;SDS011;48538;32.784;-96.802;2023-05-10T11:58:55;7.50;;;5.55;;
19808;SDS011;48538;32.784;-96.802;2023-05-10T12:01:23;11.48;;;5.78;;
19808;SDS011;48538;32.784;-96.802;2023-05-10T12:03:50;11.23;;;4.85;;
19808;SDS011;48538;32.784;-96.802;2023-05-10T12:06:19;10.13;;;5.95;;
19808;SDS011;48538;32.784;-96.802;2023-05-10T12:08:47;6.82;;;5.28;;
19808;SDS011;48538;32.784;-96.802;2023-05-10T12:11:17;9.52;;;5.95;;
19808;SDS011;48538;32.784;-96.802;2023-05-10T12:13:44;13.05;;;6.35;;
19808;SDS011;48538;32.784;-96.802;2023-05-10T12:18:55;10.55;;;6.18;;
19808;SDS011;48538;32.784;-96.802;2023-05-10T12:21:26;10.38;;;6.47;;
19808;SDS011;48538;32.784;-96.802;2023-05-10T12:24:01;13.20;;;6.50;;
19808;SDS011;48538;32.784;-96.802;2023-05-10T12:26:30;12.45;;;6.47;;
19808;SDS011;48538;32.784;-96.802;2023-05-10T12:29:12;10.88;;;6.80;;
19808;SDS011;48538;32.784;-96.802;2023-05-10T12:31:57;14.93;;;6.80;;
19808;SDS011;48538;32.784;-96.802;2023-05-10T12:36:58;11.45;;;6.57;;
19808;SDS011;48538;32.784;-96.802;2023-05-10T12:39:25;12.60;;;7.00;;
19808;SDS011;48538;32.784;-96.802;2023-05-10T12:41:51;11.95;;;7.20;;
19808;SDS011;48538;32.784;-96.802;2023-05-10T12:44:18;13.30;;;7.00;;
19808;SDS011;48538;32.784;-96.802;2023-05-10T12:46:44;9.20;;;5.85;;
19808;SDS011;48538;32.784;-96.802;2023-05-10T12:49:10;9.88;;;6.45;;
19808;SDS011;48538;32.784;-96.802;2023-05-10T12:51:37;17.50;;;7.35;;
19808;SDS011;48538;32.784;-96.802;2023-05-10T12:54:03;13.50;;;6.85;;
19808;SDS011;48538;32.784;-96.802;2023-05-10T12:56:30;10.10;;;5.88;;
19808;SDS011;48538;32.784;-96.802;2023-05-10T12:58:56;10.48;;;5.65;;
19808;SDS011;48538;32.784;-96.802;2023-05-10T13:01:22;9.82;;;6.78;;
19808;SDS011;48538;32.784;-96.802;2023-05-10T13:03:49;11.27;;;6.97;;
19808;SDS011;48538;32.784;-96.802;2023-05-10T13:06:15;7.80;;;5.35;;
19808;SDS011;48538;32.784;-96.802;2023-05-10T13:08:41;11.80;;;6.90;;
19808;SDS011;48538;32.784;-96.802;2023-05-10T13:11:08;10.77;;;6.43;;
19808;SDS011;48538;32.784;-96.802;2023-05-10T13:13:34;10.65;;;6.65;;
19808;SDS011;48538;32.784;-96.802;2023-05-10T13:16:00;9.30;;;5.95;;
19808;SDS011;48538;32.784;-96.802;2023-05-10T13:18:27;13.68;;;6.35;;
19808;SDS011;48538;32.784;-96.802;2023-05-10T13:20:53;15.45;;;6.93;;
19808;SDS011;48538;32.784;-96.802;2023-05-10T13:23:20;16.08;;;7.20;;
19808;SDS011;48538;32.784;-96.802;2023-05-10T13:25:47;11.75;;;7.20;;
19808;SDS011;48538;32.784;-96.802;2023-05-10T13:28:13;9.55;;;6.70;;
19808;SDS011;48538;32.784;-96.802;2023-05-10T13:30:39;13.43;;;6.95;;
19808;SDS011;48538;32.784;-96.802;2023-05-10T13:33:06;11.43;;;7.57;;
19808;SDS011;48538;32.784;-96.802;2023-05-10T13:35:32;14.18;;;6.85;;
19808;SDS011;48538;32.784;-96.802;2023-05-10T13:37:58;10.88;;;7.38;;
19808;SDS011;48538;32.784;-96.802;2023-05-10T13:40:24;13.57;;;6.85;;
19808;SDS011;48538;32.784;-96.802;2023-05-10T13:42:51;15.40;;;7.63;;
19808;SDS011;48538;32.784;-96.802;2023-05-10T13:45:18;16.73;;;7.88;;
19808;SDS011;48538;32.784;-96.802;2023-05-10T13:47:44;12.73;;;8.15;;
19808;SDS011;48538;32.784;-96.802;2023-05-10T13:50:11;14.38;;;8.48;;
19808;SDS011;48538;32.784;-96.802;2023-05-10T13:52:37;14.70;;;8.88;;
19808;SDS011;48538;32.784;-96.802;2023-05-10T13:55:03;15.95;;;8.82;;
19808;SDS011;48538;32.784;-96.802;2023-05-10T13:57:30;14.10;;;9.00;;
19808;SDS011;48538;32.784;-96.802;2023-05-10T13:59:56;18.20;;;8.20;;
19808;SDS011;48538;32.784;-96.802;2023-05-10T14:02:23;11.75;;;7.60;;
19808;SDS011;48538;32.784;-96.802;2023-05-10T14:04:50;17.98;;;7.95;;
19808;SDS011;48538;32.784;-96.802;2023-05-10T14:07:17;14.02;;;8.07;;
19808;SDS011;48538;32.784;-96.802;2023-05-10T14:09:43;17.25;;;9.85;;
19808;SDS011;48538;32.784;-96.802;2023-05-10T14:12:09;15.45;;;10.10;;
19808;SDS011;48538;32.784;-96.802;2023-05-10T14:14:36;19.52;;;10.18;;
19808;SDS011;48538;32.784;-96.802;2023-05-10T14:17:02;13.15;;;9.27;;
19808;SDS011;48538;32.784;-96.802;2023-05-10T14:19:29;14.82;;;8.18;;
19808;SDS011;48538;32.784;-96.802;2023-05-10T14:21:57;13.95;;;7.90;;
19808;SDS011;48538;32.784;-96.802;2023-05-10T14:24:23;14.85;;;8.95;;
19808;SDS011;48538;32.784;-96.802;2023-05-10T14:26:50;14.80;;;8.63;;
19808;SDS011;48538;32.784;-96.802;2023-05-10T14:29:19;12.38;;;8.27;;
19808;SDS011;48538;32.784;-96.802;2023-05-10T14:31:46;14.38;;;8.93;;
19808;SDS011;48538;32.784;-96.802;2023-05-10T14:34:12;16.83;;;8.95;;
19808;SDS011;48538;32.784;-96.802;2023-05-10T14:36:38;10.50;;;7.45;;
19808;SDS011;48538;32.784;-96.802;2023-05-10T14:39:05;17.52;;;8.48;;
19808;SDS011;48538;32.784;-96.802;2023-05-10T14:41:31;16.48;;;8.60;;
19808;SDS011;48538;32.784;-96.802;2023-05-10T14:43:58;14.05;;;8.02;;
19808;SDS011;48538;32.784;-96.802;2023-05-10T14:46:24;14.10;;;8.77;;
19808;SDS011;48538;32.784;-96.802;2023-05-10T14:48:50;16.85;;;8.82;;
19808;SDS011;48538;32.784;-96.802;2023-05-10T14:51:16;17.35;;;9.32;;
19808;SDS011;48538;32.784;-96.802;2023-05-10T14:53:47;14.18;;;8.45;;
19808;SDS011;48538;32.784;-96.802;2023-05-10T14:56:14;16.70;;;9.40;;
19808;SDS011;48538;32.784;-96.802;2023-05-10T14:58:41;14.80;;;8.10;;
19808;SDS011;48538;32.784;-96.802;2023-05-10T15:01:07;15.50;;;8.70;;
19808;SDS011;48538;32.784;-96.802;2023-05-10T15:03:33;14.27;;;8.90;;